Ana Sayfa
METAR-TAF:

METAR-TAF

Havaalanları :

Wainwright, Alaska, Amerika Birleşik Devletleri

Enlem: 70-38N, Boylam: 159-51W, yükseklik: 12 m

Güncel hava durumu gözlemi

Rapor saat 09:53 UTC de 1 saat ve 7 dakika önce yapıldı.
Rüzgar batı/kuzeybatıdan 14 kt
Sıcaklık -9°C
Nem 79%
Basınç 984 hPa
Görüş mesafesi: 16.1 km
900 ft yükseklikte az bulutlu
2200 ft yükseklikte çok bulutlu

METAR: PAWI 120953Z AUTO 30014KT 10SM FEW009 OVC022 M09/M12 A2906 RMK AO2 SNE0857 SLP841 T10941117 TSNO PNO $

Saat: 03:00 (11:00 UTC)


TAF: eksik

4.000'den fazla havaalanı için hava durumu gözlemleri ve tahminleri (METAR ve TAF raporları).

Kullanılabilir istasyonlar harita üzerinde sarı ve kırmızı noktalarla gösterilir.

İstasyonun adını görmek için fareyi noktanın üzerinde gezdirin.

Sonrasında hava gözlem ve tahminlerini görmek için tıklayın.

Haritayı değiştirmek için: yaklaştırmak için siyah artı işaretli yeşil düğmeye ve uzaklaştırmak için de eksi işaretli düğmeye hızla tıklayın; bitişik haritalar için yeşil okları kullanın.


METAR-TAF: